sensor_id;sensor_type;location;lat;lon;timestamp;temperature;humidity
4509;DHT22;2267;48.816;9.230;2022-12-31T00:01:22;12.80;99.90
4509;DHT22;2267;48.816;9.230;2022-12-31T00:03:49;12.80;99.90
4509;DHT22;2267;48.816;9.230;2022-12-31T00:08:49;12.90;99.90
4509;DHT22;2267;48.816;9.230;2022-12-31T00:11:17;12.90;99.90
4509;DHT22;2267;48.816;9.230;2022-12-31T00:13:44;12.90;99.90
4509;DHT22;2267;48.816;9.230;2022-12-31T00:16:16;12.90;99.90
4509;DHT22;2267;48.816;9.230;2022-12-31T00:18:46;12.90;99.90
4509;DHT22;2267;48.816;9.230;2022-12-31T00:21:14;13.00;99.90
4509;DHT22;2267;48.816;9.230;2022-12-31T00:23:41;13.00;99.90
4509;DHT22;2267;48.816;9.230;2022-12-31T00:26:14;13.00;99.90
4509;DHT22;2267;48.816;9.230;2022-12-31T00:28:41;13.00;99.90
4509;DHT22;2267;48.816;9.230;2022-12-31T00:31:10;13.00;99.90
4509;DHT22;2267;48.816;9.230;2022-12-31T00:33:38;13.00;99.90
4509;DHT22;2267;48.816;9.230;2022-12-31T00:36:20;13.10;99.90
4509;DHT22;2267;48.816;9.230;2022-12-31T00:38:48;13.10;99.90
4509;DHT22;2267;48.816;9.230;2022-12-31T00:41:17;13.20;99.90
4509;DHT22;2267;48.816;9.230;2022-12-31T00:43:44;13.20;99.90
4509;DHT22;2267;48.816;9.230;2022-12-31T00:46:12;13.20;99.90
4509;DHT22;2267;48.816;9.230;2022-12-31T00:48:39;13.20;99.90
4509;DHT22;2267;48.816;9.230;2022-12-31T00:51:09;13.20;99.90
4509;DHT22;2267;48.816;9.230;2022-12-31T00:53:36;13.20;99.90
4509;DHT22;2267;48.816;9.230;2022-12-31T00:56:10;13.20;99.90
4509;DHT22;2267;48.816;9.230;2022-12-31T00:58:38;13.30;99.90
4509;DHT22;2267;48.816;9.230;2022-12-31T01:01:17;13.30;99.90
4509;DHT22;2267;48.816;9.230;2022-12-31T01:03:45;13.30;99.90
4509;DHT22;2267;48.816;9.230;2022-12-31T01:06:13;13.30;99.90
4509;DHT22;2267;48.816;9.230;2022-12-31T01:08:40;13.30;99.90
4509;DHT22;2267;48.816;9.230;2022-12-31T01:11:07;13.40;99.90
4509;DHT22;2267;48.816;9.230;2022-12-31T01:13:45;13.40;99.90
4509;DHT22;2267;48.816;9.230;2022-12-31T01:16:13;13.40;99.90
4509;DHT22;2267;48.816;9.230;2022-12-31T01:18:40;13.40;99.90
4509;DHT22;2267;48.816;9.230;2022-12-31T01:21:09;13.40;99.90
4509;DHT22;2267;48.816;9.230;2022-12-31T01:23:36;13.40;99.90
4509;DHT22;2267;48.816;9.230;2022-12-31T01:26:05;13.40;99.90
4509;DHT22;2267;48.816;9.230;2022-12-31T01:28:32;13.40;99.90
4509;DHT22;2267;48.816;9.230;2022-12-31T01:31:08;13.40;99.90
4509;DHT22;2267;48.816;9.230;2022-12-31T01:33:36;13.40;99.90
4509;DHT22;2267;48.816;9.230;2022-12-31T01:36:11;13.40;99.90
4509;DHT22;2267;48.816;9.230;2022-12-31T01:38:38;13.40;99.90
4509;DHT22;2267;48.816;9.230;2022-12-31T01:41:06;13.50;99.90
4509;DHT22;2267;48.816;9.230;2022-12-31T01:46:10;13.50;99.90
4509;DHT22;2267;48.816;9.230;2022-12-31T01:48:38;13.50;99.90
4509;DHT22;2267;48.816;9.230;2022-12-31T01:51:06;13.50;99.90
4509;DHT22;2267;48.816;9.230;2022-12-31T01:53:35;13.50;99.90
4509;DHT22;2267;48.816;9.230;2022-12-31T01:56:06;13.50;99.90
4509;DHT22;2267;48.816;9.230;2022-12-31T01:58:40;13.50;99.90
4509;DHT22;2267;48.816;9.230;2022-12-31T02:01:09;13.50;99.90
4509;DHT22;2267;48.816;9.230;2022-12-31T02:03:39;13.60;99.90
4509;DHT22;2267;48.816;9.230;2022-12-31T02:08:34;13.60;99.90
4509;DHT22;2267;48.816;9.230;2022-12-31T02:11:23;13.60;99.90
4509;DHT22;2267;48.816;9.230;2022-12-31T02:13:52;13.60;99.90
4509;DHT22;2267;48.816;9.230;2022-12-31T02:30:41;13.70;99.90
4509;DHT22;2267;48.816;9.230;2022-12-31T02:35:57;13.70;99.90
4509;DHT22;2267;48.816;9.230;2022-12-31T02:38:28;13.70;99.90
4509;DHT22;2267;48.816;9.230;2022-12-31T02:40:57;13.70;99.90
4509;DHT22;2267;48.816;9.230;2022-12-31T02:43:24;13.70;99.90
4509;DHT22;2267;48.816;9.230;2022-12-31T02:46:24;13.70;99.90
4509;DHT22;2267;48.816;9.230;2022-12-31T02:49:05;13.80;99.90
4509;DHT22;2267;48.816;9.230;2022-12-31T02:51:48;13.80;99.90
4509;DHT22;2267;48.816;9.230;2022-12-31T02:57:12;13.70;99.90
4509;DHT22;2267;48.816;9.230;2022-12-31T02:59:57;13.80;99.90
4509;DHT22;2267;48.816;9.230;2022-12-31T03:02:47;13.80;99.90
4509;DHT22;2267;48.816;9.230;2022-12-31T03:05:17;13.80;99.90
4509;DHT22;2267;48.816;9.230;2022-12-31T03:07:45;13.70;99.90
4509;DHT22;2267;48.816;9.230;2022-12-31T03:10:12;13.70;99.90
4509;DHT22;2267;48.816;9.230;2022-12-31T03:12:40;13.70;99.90
4509;DHT22;2267;48.816;9.230;2022-12-31T03:18:07;13.70;99.90
4509;DHT22;2267;48.816;9.230;2022-12-31T03:23:40;13.70;99.90
4509;DHT22;2267;48.816;9.230;2022-12-31T03:26:10;13.60;99.90
4509;DHT22;2267;48.816;9.230;2022-12-31T03:28:38;13.60;99.90
4509;DHT22;2267;48.816;9.230;2022-12-31T03:31:06;13.60;99.90
4509;DHT22;2267;48.816;9.230;2022-12-31T03:33:36;13.60;99.90
4509;DHT22;2267;48.816;9.230;2022-12-31T03:36:11;13.70;99.90
4509;DHT22;2267;48.816;9.230;2022-12-31T03:38:38;13.60;99.90
4509;DHT22;2267;48.816;9.230;2022-12-31T03:41:05;13.60;99.90
4509;DHT22;2267;48.816;9.230;2022-12-31T03:43:32;13.70;99.90
4509;DHT22;2267;48.816;9.230;2022-12-31T03:45:58;13.70;99.90
4509;DHT22;2267;48.816;9.230;2022-12-31T03:48:27;13.70;99.90
4509;DHT22;2267;48.816;9.230;2022-12-31T03:50:53;13.70;99.90
4509;DHT22;2267;48.816;9.230;2022-12-31T03:53:20;13.70;99.90
4509;DHT22;2267;48.816;9.230;2022-12-31T03:55:51;13.70;99.90
4509;DHT22;2267;48.816;9.230;2022-12-31T03:58:18;13.80;99.90
4509;DHT22;2267;48.816;9.230;2022-12-31T04:00:45;13.80;99.90
4509;DHT22;2267;48.816;9.230;2022-12-31T04:03:11;13.90;99.90
4509;DHT22;2267;48.816;9.230;2022-12-31T04:05:38;14.00;99.90
4509;DHT22;2267;48.816;9.230;2022-12-31T04:08:05;14.00;99.90
4509;DHT22;2267;48.816;9.230;2022-12-31T04:10:32;14.10;99.90
4509;DHT22;2267;48.816;9.230;2022-12-31T04:12:59;14.10;99.90
4509;DHT22;2267;48.816;9.230;2022-12-31T04:15:28;14.20;99.90
4509;DHT22;2267;48.816;9.230;2022-12-31T04:17:54;14.20;99.90
4509;DHT22;2267;48.816;9.230;2022-12-31T04:20:21;14.20;99.90
4509;DHT22;2267;48.816;9.230;2022-12-31T04:22:48;14.20;99.90
4509;DHT22;2267;48.816;9.230;2022-12-31T04:25:15;14.30;99.90
4509;DHT22;2267;48.816;9.230;2022-12-31T04:27:42;14.30;99.90
4509;DHT22;2267;48.816;9.230;2022-12-31T04:30:12;14.40;99.90
4509;DHT22;2267;48.816;9.230;2022-12-31T04:32:39;14.40;99.90
4509;DHT22;2267;48.816;9.230;2022-12-31T04:35:07;14.40;99.90
4509;DHT22;2267;48.816;9.230;2022-12-31T04:37:34;14.40;99.90
4509;DHT22;2267;48.816;9.230;2022-12-31T04:40:01;14.50;99.90
4509;DHT22;2267;48.816;9.230;2022-12-31T04:42:33;14.50;99.90
4509;DHT22;2267;48.816;9.230;2022-12-31T04:44:59;14.50;99.90
4509;DHT22;2267;48.816;9.230;2022-12-31T04:47:26;14.50;99.90
4509;DHT22;2267;48.816;9.230;2022-12-31T04:49:53;14.60;99.90
4509;DHT22;2267;48.816;9.230;2022-12-31T04:52:20;14.60;99.90
4509;DHT22;2267;48.816;9.230;2022-12-31T04:54:47;14.60;99.90
4509;DHT22;2267;48.816;9.230;2022-12-31T04:57:14;14.60;99.90
4509;DHT22;2267;48.816;9.230;2022-12-31T04:59:40;14.60;99.90
4509;DHT22;2267;48.816;9.230;2022-12-31T05:02:07;14.60;99.90
4509;DHT22;2267;48.816;9.230;2022-12-31T05:04:34;14.60;99.90
4509;DHT22;2267;48.816;9.230;2022-12-31T05:07:01;14.60;99.90
4509;DHT22;2267;48.816;9.230;2022-12-31T05:09:28;14.60;99.90
4509;DHT22;2267;48.816;9.230;2022-12-31T05:11:55;14.60;99.90
4509;DHT22;2267;48.816;9.230;2022-12-31T05:14:22;14.60;99.90
4509;DHT22;2267;48.816;9.230;2022-12-31T05:16:49;14.50;99.90
4509;DHT22;2267;48.816;9.230;2022-12-31T05:19:16;14.50;99.90
4509;DHT22;2267;48.816;9.230;2022-12-31T05:21:43;14.50;99.90
4509;DHT22;2267;48.816;9.230;2022-12-31T05:24:09;14.50;99.90
4509;DHT22;2267;48.816;9.230;2022-12-31T05:26:36;14.50;99.90
4509;DHT22;2267;48.816;9.230;2022-12-31T05:29:03;14.50;99.90
4509;DHT22;2267;48.816;9.230;2022-12-31T05:31:30;14.40;99.90
4509;DHT22;2267;48.816;9.230;2022-12-31T05:33:56;14.40;99.90
4509;DHT22;2267;48.816;9.230;2022-12-31T05:36:23;14.40;99.90
4509;DHT22;2267;48.816;9.230;2022-12-31T05:38:50;14.40;99.90
4509;DHT22;2267;48.816;9.230;2022-12-31T05:41:16;14.40;99.90
4509;DHT22;2267;48.816;9.230;2022-12-31T05:43:43;14.40;99.90
4509;DHT22;2267;48.816;9.230;2022-12-31T05:46:10;14.30;99.90
4509;DHT22;2267;48.816;9.230;2022-12-31T05:48:36;14.40;99.90
4509;DHT22;2267;48.816;9.230;2022-12-31T05:51:03;14.40;99.90
4509;DHT22;2267;48.816;9.230;2022-12-31T05:53:30;14.40;99.90
4509;DHT22;2267;48.816;9.230;2022-12-31T05:55:58;14.40;99.90
4509;DHT22;2267;48.816;9.230;2022-12-31T05:58:25;14.40;99.90
4509;DHT22;2267;48.816;9.230;2022-12-31T06:00:51;14.40;99.90
4509;DHT22;2267;48.816;9.230;2022-12-31T06:03:18;14.50;99.90
4509;DHT22;2267;48.816;9.230;2022-12-31T06:05:45;14.50;99.90
4509;DHT22;2267;48.816;9.230;2022-12-31T06:08:12;14.50;99.90
4509;DHT22;2267;48.816;9.230;2022-12-31T06:10:39;14.50;99.90
4509;DHT22;2267;48.816;9.230;2022-12-31T06:13:06;14.50;99.90
4509;DHT22;2267;48.816;9.230;2022-12-31T06:15:36;14.60;99.90
4509;DHT22;2267;48.816;9.230;2022-12-31T06:18:04;14.60;99.90
4509;DHT22;2267;48.816;9.230;2022-12-31T06:20:31;14.60;99.90
4509;DHT22;2267;48.816;9.230;2022-12-31T06:22:57;14.60;99.90
4509;DHT22;2267;48.816;9.230;2022-12-31T06:25:25;14.60;99.90
4509;DHT22;2267;48.816;9.230;2022-12-31T06:27:52;14.60;99.90
4509;DHT22;2267;48.816;9.230;2022-12-31T06:30:18;14.60;99.90
4509;DHT22;2267;48.816;9.230;2022-12-31T06:32:45;14.70;99.90
4509;DHT22;2267;48.816;9.230;2022-12-31T06:35:12;14.70;99.90
4509;DHT22;2267;48.816;9.230;2022-12-31T06:37:39;14.70;99.90
4509;DHT22;2267;48.816;9.230;2022-12-31T06:40:06;14.70;99.90
4509;DHT22;2267;48.816;9.230;2022-12-31T06:42:33;14.70;99.90
4509;DHT22;2267;48.816;9.230;2022-12-31T06:45:00;14.70;99.90
4509;DHT22;2267;48.816;9.230;2022-12-31T06:47:27;14.70;99.90
4509;DHT22;2267;48.816;9.230;2022-12-31T06:49:53;14.70;99.90
4509;DHT22;2267;48.816;9.230;2022-12-31T06:52:20;14.70;99.90
4509;DHT22;2267;48.816;9.230;2022-12-31T06:54:47;14.70;99.90
4509;DHT22;2267;48.816;9.230;2022-12-31T06:57:15;14.70;99.90
4509;DHT22;2267;48.816;9.230;2022-12-31T06:59:42;14.70;99.90
4509;DHT22;2267;48.816;9.230;2022-12-31T07:05:46;14.70;99.90
4509;DHT22;2267;48.816;9.230;2022-12-31T07:08:33;14.70;99.90
4509;DHT22;2267;48.816;9.230;2022-12-31T07:21:56;14.70;99.90
4509;DHT22;2267;48.816;9.230;2022-12-31T07:24:23;14.80;99.90
4509;DHT22;2267;48.816;9.230;2022-12-31T07:27:03;14.80;99.90
4509;DHT22;2267;48.816;9.230;2022-12-31T07:29:58;14.80;99.90
4509;DHT22;2267;48.816;9.230;2022-12-31T07:41:16;14.90;99.90
4509;DHT22;2267;48.816;9.230;2022-12-31T07:44:00;14.90;99.90
4509;DHT22;2267;48.816;9.230;2022-12-31T07:49:09;14.90;99.90
4509;DHT22;2267;48.816;9.230;2022-12-31T07:51:37;14.90;99.90
4509;DHT22;2267;48.816;9.230;2022-12-31T07:54:04;14.90;99.90
4509;DHT22;2267;48.816;9.230;2022-12-31T07:56:39;14.90;99.90
4509;DHT22;2267;48.816;9.230;2022-12-31T08:12:36;15.10;99.90
4509;DHT22;2267;48.816;9.230;2022-12-31T08:15:16;15.10;99.90
4509;DHT22;2267;48.816;9.230;2022-12-31T08:17:44;15.20;99.90
4509;DHT22;2267;48.816;9.230;2022-12-31T08:20:16;15.20;99.90
4509;DHT22;2267;48.816;9.230;2022-12-31T08:23:24;15.30;99.90
4509;DHT22;2267;48.816;9.230;2022-12-31T08:25:56;15.30;99.90
4509;DHT22;2267;48.816;9.230;2022-12-31T08:31:53;15.30;99.90
4509;DHT22;2267;48.816;9.230;2022-12-31T08:34:39;15.40;99.90
4509;DHT22;2267;48.816;9.230;2022-12-31T08:45:40;15.40;99.90
4509;DHT22;2267;48.816;9.230;2022-12-31T08:48:19;15.50;99.90
4509;DHT22;2267;48.816;9.230;2022-12-31T08:50:49;15.50;99.90
4509;DHT22;2267;48.816;9.230;2022-12-31T08:53:16;15.50;99.90
4509;DHT22;2267;48.816;9.230;2022-12-31T08:55:44;15.50;99.90
4509;DHT22;2267;48.816;9.230;2022-12-31T09:00:47;15.50;99.90
4509;DHT22;2267;48.816;9.230;2022-12-31T09:06:20;15.50;99.90
4509;DHT22;2267;48.816;9.230;2022-12-31T09:11:22;15.60;99.90
4509;DHT22;2267;48.816;9.230;2022-12-31T09:17:08;15.60;99.90
4509;DHT22;2267;48.816;9.230;2022-12-31T09:19:36;15.60;99.90
4509;DHT22;2267;48.816;9.230;2022-12-31T09:22:03;15.60;99.90
4509;DHT22;2267;48.816;9.230;2022-12-31T09:24:30;15.70;99.90
4509;DHT22;2267;48.816;9.230;2022-12-31T09:27:27;15.80;99.90
4509;DHT22;2267;48.816;9.230;2022-12-31T09:40:49;16.50;99.90
4509;DHT22;2267;48.816;9.230;2022-12-31T09:49:56;17.00;99.90
4509;DHT22;2267;48.816;9.230;2022-12-31T09:52:46;16.90;99.90
4509;DHT22;2267;48.816;9.230;2022-12-31T09:58:15;17.00;99.90
4509;DHT22;2267;48.816;9.230;2022-12-31T10:02:02;17.00;99.90
4509;DHT22;2267;48.816;9.230;2022-12-31T10:06:38;17.30;99.90
4509;DHT22;2267;48.816;9.230;2022-12-31T10:15:41;17.70;99.90
4509;DHT22;2267;48.816;9.230;2022-12-31T10:18:28;17.90;99.90
4509;DHT22;2267;48.816;9.230;2022-12-31T10:23:53;18.20;99.90
4509;DHT22;2267;48.816;9.230;2022-12-31T10:32:19;18.40;99.90
4509;DHT22;2267;48.816;9.230;2022-12-31T11:08:20;18.60;99.90
4509;DHT22;2267;48.816;9.230;2022-12-31T11:19:18;18.70;99.90
4509;DHT22;2267;48.816;9.230;2022-12-31T11:25:10;18.60;99.90
4509;DHT22;2267;48.816;9.230;2022-12-31T11:27:57;18.50;99.90
4509;DHT22;2267;48.816;9.230;2022-12-31T11:42:10;18.50;99.90
4509;DHT22;2267;48.816;9.230;2022-12-31T11:56:19;18.50;99.90
4509;DHT22;2267;48.816;9.230;2022-12-31T11:58:51;18.60;99.90
4509;DHT22;2267;48.816;9.230;2022-12-31T12:03:58;18.70;99.90
4509;DHT22;2267;48.816;9.230;2022-12-31T12:06:30;18.70;99.90
4509;DHT22;2267;48.816;9.230;2022-12-31T12:09:14;18.80;99.90
4509;DHT22;2267;48.816;9.230;2022-12-31T12:11:42;18.90;99.90
4509;DHT22;2267;48.816;9.230;2022-12-31T12:14:33;19.00;99.90
4509;DHT22;2267;48.816;9.230;2022-12-31T12:17:05;19.10;99.80
4509;DHT22;2267;48.816;9.230;2022-12-31T12:19:34;19.20;99.70
4509;DHT22;2267;48.816;9.230;2022-12-31T12:22:21;19.40;99.80
4509;DHT22;2267;48.816;9.230;2022-12-31T12:24:54;19.50;99.30
4509;DHT22;2267;48.816;9.230;2022-12-31T12:27:23;19.50;99.10
4509;DHT22;2267;48.816;9.230;2022-12-31T12:29:52;19.60;99.00
4509;DHT22;2267;48.816;9.230;2022-12-31T12:32:22;19.70;98.70
4509;DHT22;2267;48.816;9.230;2022-12-31T12:34:50;19.70;98.50
4509;DHT22;2267;48.816;9.230;2022-12-31T12:39:58;19.70;98.70
4509;DHT22;2267;48.816;9.230;2022-12-31T12:42:26;19.70;98.80
4509;DHT22;2267;48.816;9.230;2022-12-31T12:45:09;19.60;98.60
4509;DHT22;2267;48.816;9.230;2022-12-31T12:47:41;19.60;98.70
4509;DHT22;2267;48.816;9.230;2022-12-31T12:50:16;19.60;98.50
4509;DHT22;2267;48.816;9.230;2022-12-31T13:07:15;19.70;98.00
4509;DHT22;2267;48.816;9.230;2022-12-31T13:20:51;19.60;97.50
4509;DHT22;2267;48.816;9.230;2022-12-31T13:23:33;19.50;97.40
4509;DHT22;2267;48.816;9.230;2022-12-31T13:28:37;19.50;97.30
4509;DHT22;2267;48.816;9.230;2022-12-31T13:31:14;19.40;96.90
4509;DHT22;2267;48.816;9.230;2022-12-31T13:33:51;19.40;97.10
4509;DHT22;2267;48.816;9.230;2022-12-31T13:36:22;19.40;97.30
4509;DHT22;2267;48.816;9.230;2022-12-31T13:39:01;19.30;97.00
4509;DHT22;2267;48.816;9.230;2022-12-31T13:41:35;19.30;96.80
4509;DHT22;2267;48.816;9.230;2022-12-31T13:44:34;19.40;99.90
4509;DHT22;2267;48.816;9.230;2022-12-31T13:47:10;19.40;99.70
4509;DHT22;2267;48.816;9.230;2022-12-31T13:49:41;19.40;99.90
4509;DHT22;2267;48.816;9.230;2022-12-31T13:52:21;19.40;99.90
4509;DHT22;2267;48.816;9.230;2022-12-31T13:55:08;19.40;98.70
4509;DHT22;2267;48.816;9.230;2022-12-31T13:58:25;19.40;99.90
4509;DHT22;2267;48.816;9.230;2022-12-31T14:00:39;19.40;99.30
4509;DHT22;2267;48.816;9.230;2022-12-31T14:08:36;19.40;99.50
4509;DHT22;2267;48.816;9.230;2022-12-31T14:24:29;19.10;98.80
4509;DHT22;2267;48.816;9.230;2022-12-31T14:26:59;19.00;98.70
4509;DHT22;2267;48.816;9.230;2022-12-31T14:29:33;18.90;98.80
4509;DHT22;2267;48.816;9.230;2022-12-31T14:37:26;18.80;98.60
4509;DHT22;2267;48.816;9.230;2022-12-31T14:50:36;18.60;98.90
4509;DHT22;2267;48.816;9.230;2022-12-31T14:55:33;18.60;98.60
4509;DHT22;2267;48.816;9.230;2022-12-31T14:58:15;18.60;98.70
4509;DHT22;2267;48.816;9.230;2022-12-31T15:01:03;18.50;98.90
4509;DHT22;2267;48.816;9.230;2022-12-31T15:03:40;18.50;99.00
4509;DHT22;2267;48.816;9.230;2022-12-31T15:06:46;18.40;99.20
4509;DHT22;2267;48.816;9.230;2022-12-31T15:22:44;18.20;99.90
4509;DHT22;2267;48.816;9.230;2022-12-31T15:25:36;18.20;99.90
4509;DHT22;2267;48.816;9.230;2022-12-31T15:28:37;18.10;99.90
4509;DHT22;2267;48.816;9.230;2022-12-31T15:31:18;18.10;99.90
4509;DHT22;2267;48.816;9.230;2022-12-31T15:34:27;18.10;99.90
4509;DHT22;2267;48.816;9.230;2022-12-31T15:36:58;18.00;99.90
4509;DHT22;2267;48.816;9.230;2022-12-31T15:39:39;18.00;99.90
4509;DHT22;2267;48.816;9.230;2022-12-31T15:42:59;18.00;99.90
4509;DHT22;2267;48.816;9.230;2022-12-31T15:45:30;17.90;99.90
4509;DHT22;2267;48.816;9.230;2022-12-31T15:48:00;17.90;99.90
4509;DHT22;2267;48.816;9.230;2022-12-31T15:50:29;17.90;99.90
4509;DHT22;2267;48.816;9.230;2022-12-31T15:52:59;17.80;99.90
4509;DHT22;2267;48.816;9.230;2022-12-31T15:57:55;17.80;99.90
4509;DHT22;2267;48.816;9.230;2022-12-31T16:00:23;17.70;99.90
4509;DHT22;2267;48.816;9.230;2022-12-31T16:02:52;17.70;99.90
4509;DHT22;2267;48.816;9.230;2022-12-31T16:05:25;17.70;99.90
4509;DHT22;2267;48.816;9.230;2022-12-31T16:07:57;17.70;99.90
4509;DHT22;2267;48.816;9.230;2022-12-31T16:10:28;17.70;99.90
4509;DHT22;2267;48.816;9.230;2022-12-31T16:12:57;17.70;99.90
4509;DHT22;2267;48.816;9.230;2022-12-31T16:15:29;17.70;99.90
4509;DHT22;2267;48.816;9.230;2022-12-31T16:18:05;17.60;99.90
4509;DHT22;2267;48.816;9.230;2022-12-31T16:20:41;17.60;99.90
4509;DHT22;2267;48.816;9.230;2022-12-31T16:23:22;17.60;99.90
4509;DHT22;2267;48.816;9.230;2022-12-31T16:25:51;17.50;99.90
4509;DHT22;2267;48.816;9.230;2022-12-31T16:28:22;17.50;99.90
4509;DHT22;2267;48.816;9.230;2022-12-31T16:31:00;17.50;99.90
4509;DHT22;2267;48.816;9.230;2022-12-31T16:33:27;17.50;99.90
4509;DHT22;2267;48.816;9.230;2022-12-31T16:35:58;17.40;99.90
4509;DHT22;2267;48.816;9.230;2022-12-31T16:38:35;17.40;99.90
4509;DHT22;2267;48.816;9.230;2022-12-31T16:41:07;17.40;99.90
4509;DHT22;2267;48.816;9.230;2022-12-31T16:43:39;17.40;99.90
4509;DHT22;2267;48.816;9.230;2022-12-31T16:46:16;17.30;99.90
4509;DHT22;2267;48.816;9.230;2022-12-31T16:51:23;17.20;99.90
4509;DHT22;2267;48.816;9.230;2022-12-31T16:53:51;17.20;99.90
4509;DHT22;2267;48.816;9.230;2022-12-31T16:56:32;17.10;99.90
4509;DHT22;2267;48.816;9.230;2022-12-31T16:59:03;17.10;99.90
4509;DHT22;2267;48.816;9.230;2022-12-31T17:01:34;17.10;99.90
4509;DHT22;2267;48.816;9.230;2022-12-31T17:04:06;17.00;99.90
4509;DHT22;2267;48.816;9.230;2022-12-31T17:06:35;17.10;99.90
4509;DHT22;2267;48.816;9.230;2022-12-31T17:09:16;17.00;99.90
4509;DHT22;2267;48.816;9.230;2022-12-31T17:11:53;17.00;99.90
4509;DHT22;2267;48.816;9.230;2022-12-31T17:14:25;16.90;99.90
4509;DHT22;2267;48.816;9.230;2022-12-31T17:17:04;16.90;99.90
4509;DHT22;2267;48.816;9.230;2022-12-31T17:19:45;16.90;99.90
4509;DHT22;2267;48.816;9.230;2022-12-31T17:22:28;16.90;99.90
4509;DHT22;2267;48.816;9.230;2022-12-31T17:25:05;16.80;99.90
4509;DHT22;2267;48.816;9.230;2022-12-31T17:27:33;16.80;99.90
4509;DHT22;2267;48.816;9.230;2022-12-31T17:32:47;16.80;99.90
4509;DHT22;2267;48.816;9.230;2022-12-31T17:35:33;16.70;99.90
4509;DHT22;2267;48.816;9.230;2022-12-31T17:40:53;16.70;99.90
4509;DHT22;2267;48.816;9.230;2022-12-31T17:43:22;16.60;99.90
4509;DHT22;2267;48.816;9.230;2022-12-31T17:45:50;16.60;99.90
4509;DHT22;2267;48.816;9.230;2022-12-31T17:48:19;16.60;99.90
4509;DHT22;2267;48.816;9.230;2022-12-31T17:50:57;16.60;99.90
4509;DHT22;2267;48.816;9.230;2022-12-31T17:53:24;16.60;99.90
4509;DHT22;2267;48.816;9.230;2022-12-31T17:55:56;16.60;99.90
4509;DHT22;2267;48.816;9.230;2022-12-31T17:58:27;16.50;99.90
4509;DHT22;2267;48.816;9.230;2022-12-31T18:00:55;16.60;99.90
4509;DHT22;2267;48.816;9.230;2022-12-31T18:03:22;16.50;99.90
4509;DHT22;2267;48.816;9.230;2022-12-31T18:05:49;16.50;99.90
4509;DHT22;2267;48.816;9.230;2022-12-31T18:08:16;16.50;99.90
4509;DHT22;2267;48.816;9.230;2022-12-31T18:10:43;16.50;99.90
4509;DHT22;2267;48.816;9.230;2022-12-31T18:13:14;16.50;99.90
4509;DHT22;2267;48.816;9.230;2022-12-31T18:15:43;16.50;99.90
4509;DHT22;2267;48.816;9.230;2022-12-31T18:18:22;16.50;99.90
4509;DHT22;2267;48.816;9.230;2022-12-31T18:21:01;16.50;99.90
4509;DHT22;2267;48.816;9.230;2022-12-31T18:23:40;16.50;99.90
4509;DHT22;2267;48.816;9.230;2022-12-31T18:26:16;16.40;99.90
4509;DHT22;2267;48.816;9.230;2022-12-31T18:28:43;16.40;99.90
4509;DHT22;2267;48.816;9.230;2022-12-31T18:31:22;16.40;99.90
4509;DHT22;2267;48.816;9.230;2022-12-31T18:33:51;16.40;99.90
4509;DHT22;2267;48.816;9.230;2022-12-31T18:36:19;16.40;99.90
4509;DHT22;2267;48.816;9.230;2022-12-31T18:38:46;16.30;99.90
4509;DHT22;2267;48.816;9.230;2022-12-31T18:41:21;16.40;99.90
4509;DHT22;2267;48.816;9.230;2022-12-31T18:43:49;16.30;99.90
4509;DHT22;2267;48.816;9.230;2022-12-31T18:46:20;16.20;99.90
4509;DHT22;2267;48.816;9.230;2022-12-31T18:48:48;16.30;99.90
4509;DHT22;2267;48.816;9.230;2022-12-31T18:51:20;16.20;99.90
4509;DHT22;2267;48.816;9.230;2022-12-31T18:53:57;16.20;99.90
4509;DHT22;2267;48.816;9.230;2022-12-31T18:56:24;16.20;99.90
4509;DHT22;2267;48.816;9.230;2022-12-31T18:58:51;15.70;99.90
4509;DHT22;2267;48.816;9.230;2022-12-31T19:01:33;16.10;99.90
4509;DHT22;2267;48.816;9.230;2022-12-31T19:04:03;16.10;99.90
4509;DHT22;2267;48.816;9.230;2022-12-31T19:06:30;16.10;99.90
4509;DHT22;2267;48.816;9.230;2022-12-31T19:08:57;16.10;99.90
4509;DHT22;2267;48.816;9.230;2022-12-31T19:11:26;16.10;99.90
4509;DHT22;2267;48.816;9.230;2022-12-31T19:13:53;16.10;99.90
4509;DHT22;2267;48.816;9.230;2022-12-31T19:16:20;16.10;99.90
4509;DHT22;2267;48.816;9.230;2022-12-31T19:18:47;16.10;99.90
4509;DHT22;2267;48.816;9.230;2022-12-31T19:21:17;16.00;99.90
4509;DHT22;2267;48.816;9.230;2022-12-31T19:23:45;16.10;99.90
4509;DHT22;2267;48.816;9.230;2022-12-31T19:26:19;16.00;99.90
4509;DHT22;2267;48.816;9.230;2022-12-31T19:28:48;16.00;99.90
4509;DHT22;2267;48.816;9.230;2022-12-31T19:31:16;16.00;99.90
4509;DHT22;2267;48.816;9.230;2022-12-31T19:33:43;16.00;99.90
4509;DHT22;2267;48.816;9.230;2022-12-31T19:36:17;15.90;99.90
4509;DHT22;2267;48.816;9.230;2022-12-31T19:38:45;15.90;99.90
4509;DHT22;2267;48.816;9.230;2022-12-31T19:41:17;15.90;99.90
4509;DHT22;2267;48.816;9.230;2022-12-31T19:43:45;15.90;99.90
4509;DHT22;2267;48.816;9.230;2022-12-31T19:46:14;15.90;99.90
4509;DHT22;2267;48.816;9.230;2022-12-31T19:48:42;15.90;99.90
4509;DHT22;2267;48.816;9.230;2022-12-31T19:51:17;15.80;99.90
4509;DHT22;2267;48.816;9.230;2022-12-31T19:53:45;15.80;99.90
4509;DHT22;2267;48.816;9.230;2022-12-31T19:56:18;15.80;99.90
4509;DHT22;2267;48.816;9.230;2022-12-31T19:58:45;15.80;99.90
4509;DHT22;2267;48.816;9.230;2022-12-31T20:01:18;15.80;99.90
4509;DHT22;2267;48.816;9.230;2022-12-31T20:03:46;15.80;99.90
4509;DHT22;2267;48.816;9.230;2022-12-31T20:06:14;15.80;99.90
4509;DHT22;2267;48.816;9.230;2022-12-31T20:08:41;15.80;99.90
4509;DHT22;2267;48.816;9.230;2022-12-31T20:11:17;15.80;99.90
4509;DHT22;2267;48.816;9.230;2022-12-31T20:13:45;15.70;99.90
4509;DHT22;2267;48.816;9.230;2022-12-31T20:16:14;15.80;99.90
4509;DHT22;2267;48.816;9.230;2022-12-31T20:18:44;15.80;99.90
4509;DHT22;2267;48.816;9.230;2022-12-31T20:21:16;16.20;99.90
4509;DHT22;2267;48.816;9.230;2022-12-31T20:23:44;16.30;99.90
4509;DHT22;2267;48.816;9.230;2022-12-31T20:26:11;16.70;99.90
4509;DHT22;2267;48.816;9.230;2022-12-31T20:28:38;16.70;99.90
4509;DHT22;2267;48.816;9.230;2022-12-31T20:31:09;16.70;99.90
4509;DHT22;2267;48.816;9.230;2022-12-31T20:33:37;16.70;99.90
4509;DHT22;2267;48.816;9.230;2022-12-31T20:36:06;16.60;99.90
4509;DHT22;2267;48.816;9.230;2022-12-31T20:38:33;16.50;99.90
4509;DHT22;2267;48.816;9.230;2022-12-31T20:41:04;16.40;99.90
4509;DHT22;2267;48.816;9.230;2022-12-31T20:43:32;16.30;99.90
4509;DHT22;2267;48.816;9.230;2022-12-31T20:46:05;16.30;99.90
4509;DHT22;2267;48.816;9.230;2022-12-31T20:48:39;16.20;99.90
4509;DHT22;2267;48.816;9.230;2022-12-31T20:51:06;16.10;99.90
4509;DHT22;2267;48.816;9.230;2022-12-31T20:53:33;16.10;99.90
4509;DHT22;2267;48.816;9.230;2022-12-31T20:56:07;16.00;99.90
4509;DHT22;2267;48.816;9.230;2022-12-31T20:58:34;15.90;99.90
4509;DHT22;2267;48.816;9.230;2022-12-31T21:01:04;15.90;99.90
4509;DHT22;2267;48.816;9.230;2022-12-31T21:03:34;15.80;99.90
4509;DHT22;2267;48.816;9.230;2022-12-31T21:06:21;15.80;99.90
4509;DHT22;2267;48.816;9.230;2022-12-31T21:08:48;15.70;99.90
4509;DHT22;2267;48.816;9.230;2022-12-31T21:11:15;15.70;99.90
4509;DHT22;2267;48.816;9.230;2022-12-31T21:14:01;15.70;99.90
4509;DHT22;2267;48.816;9.230;2022-12-31T21:16:28;15.70;99.90
4509;DHT22;2267;48.816;9.230;2022-12-31T21:18:55;15.60;99.90
4509;DHT22;2267;48.816;9.230;2022-12-31T21:21:22;15.60;99.90
4509;DHT22;2267;48.816;9.230;2022-12-31T21:23:49;15.60;99.90
4509;DHT22;2267;48.816;9.230;2022-12-31T21:26:16;15.50;99.90
4509;DHT22;2267;48.816;9.230;2022-12-31T21:28:43;15.50;99.90